Alburtis, PA

4:22 AM EDT on June 30, 2015 (GMT -0400)
Alburtis | | Change Station
CLOSE
Current Station
Personal Weather Station
Location: Alburtis, PA
Elevation: 482 ft
Nearby Weather Stations

Elev 482 ft 40.51 °N, 75.60 °W | Updated 2 minutes ago

Overcast
Overcast
63.1 °F
Feels Like 63.1 °F
N
0.0
Wind Variable Wind from ESE

Today
High -- | Low -- °F
--% Chance of Precip.
Yesterday
High -- | Low -- °F
Precip. -- in
5:35 AM 8:36 PM
Waxing Gibbous, 96% visible
Pressure 29.95 in
Visibility 10.0 miles
Clouds Overcast 9000 ft
Dew Point 61 °F
Humidity 92%
Rainfall in
Snow Depth Not available.
UV 0 out of 12
Pollen 4.10 out of 12
Air Quality Not available.
Flu Activity Sporadic
METAR KXLL 300815Z AUTO 00000KT 10SM OVC090 18/16 A2995 RMK AO2

More Conditions Fewer Conditions

Pressure 29.95 in
Visibility 10.0 miles
Clouds Overcast 9000 ft
Dew Point 61 °F
Humidity 92%
Rainfall in
Snow Depth Not available.
UV 0 out of 12
Pollen 4.10 out of 12
Air Quality Not available.
Flu Activity Sporadic
METAR KXLL 300815Z AUTO 00000KT 10SM OVC090 18/16 A2995 RMK AO2

More Conditions Fewer Conditions

10-Day Weather Forecast

×

Almanac

Astronomy

Jun. 30, 2015 Rise Set
Actual Time
Civil Twilight
Nautical Twilight
Astronomical Twilight
Moon
Length of Visible Light
Length of Day
Tomorrow will be .
, % of the Moon is Illuminated

Today's Extremes

State Highs State Lows

Community

WunderPhotos

Upload Photos

1,833,976 photos uploaded!

WunderBlogs® & News

Nearby

Air Quality

  Air Quality AQ Index Pollutant
Not available.

Snow Depth

Station Depth Elevation

Earthquake Activity

City Distance Mag. Time & Date
Minimum magnitude displayed is 2.5.

Coastal Water Temperatures

Place Temperature

Stations

Nearby Weather Stations

Station Location Temp. Windchill Dew Point Humidity Wind Precip. Elev Updated Type